sensor_id;sensor_type;location;lat;lon;timestamp;P1;durP1;ratioP1;P2;durP2;ratioP2
68910;SDS011;55953;51.650;-0.522;2023-02-21T00:01:57;4.50;;;2.20;;
68910;SDS011;55953;51.650;-0.522;2023-02-21T00:04:44;2.90;;;2.00;;
68910;SDS011;55953;51.650;-0.522;2023-02-21T00:07:32;2.90;;;2.20;;
68910;SDS011;55953;51.650;-0.522;2023-02-21T00:10:18;2.60;;;1.70;;
68910;SDS011;55953;51.650;-0.522;2023-02-21T00:13:05;2.90;;;2.10;;
68910;SDS011;55953;51.650;-0.522;2023-02-21T00:15:51;6.20;;;2.30;;
68910;SDS011;55953;51.650;-0.522;2023-02-21T00:18:38;2.40;;;1.90;;
68910;SDS011;55953;51.650;-0.522;2023-02-21T00:21:27;2.60;;;2.00;;
68910;SDS011;55953;51.650;-0.522;2023-02-21T00:24:17;3.20;;;1.90;;
68910;SDS011;55953;51.650;-0.522;2023-02-21T00:27:04;2.90;;;2.00;;
68910;SDS011;55953;51.650;-0.522;2023-02-21T00:29:51;4.20;;;2.20;;
68910;SDS011;55953;51.650;-0.522;2023-02-21T00:32:38;2.90;;;2.20;;
68910;SDS011;55953;51.650;-0.522;2023-02-21T00:35:25;2.90;;;1.90;;
68910;SDS011;55953;51.650;-0.522;2023-02-21T00:38:11;3.20;;;2.30;;
68910;SDS011;55953;51.650;-0.522;2023-02-21T00:40:58;2.90;;;2.20;;
68910;SDS011;55953;51.650;-0.522;2023-02-21T00:43:44;3.00;;;2.40;;
68910;SDS011;55953;51.650;-0.522;2023-02-21T00:46:31;2.30;;;1.80;;
68910;SDS011;55953;51.650;-0.522;2023-02-21T00:49:17;2.30;;;2.00;;
68910;SDS011;55953;51.650;-0.522;2023-02-21T00:52:03;3.90;;;2.60;;
68910;SDS011;55953;51.650;-0.522;2023-02-21T00:54:50;2.90;;;2.20;;
68910;SDS011;55953;51.650;-0.522;2023-02-21T00:57:37;3.40;;;2.60;;
68910;SDS011;55953;51.650;-0.522;2023-02-21T01:00:24;4.00;;;2.80;;
68910;SDS011;55953;51.650;-0.522;2023-02-21T01:03:11;4.40;;;2.30;;
68910;SDS011;55953;51.650;-0.522;2023-02-21T01:05:57;5.50;;;2.60;;
68910;SDS011;55953;51.650;-0.522;2023-02-21T01:08:45;4.10;;;2.90;;
68910;SDS011;55953;51.650;-0.522;2023-02-21T01:11:32;4.10;;;2.70;;
68910;SDS011;55953;51.650;-0.522;2023-02-21T01:14:18;5.20;;;2.70;;
68910;SDS011;55953;51.650;-0.522;2023-02-21T01:17:05;4.00;;;2.80;;
68910;SDS011;55953;51.650;-0.522;2023-02-21T01:19:51;3.60;;;2.80;;
68910;SDS011;55953;51.650;-0.522;2023-02-21T01:22:38;4.60;;;2.80;;
68910;SDS011;55953;51.650;-0.522;2023-02-21T01:25:24;4.20;;;3.00;;
68910;SDS011;55953;51.650;-0.522;2023-02-21T01:28:10;4.70;;;3.10;;
68910;SDS011;55953;51.650;-0.522;2023-02-21T01:30:57;4.00;;;2.90;;
68910;SDS011;55953;51.650;-0.522;2023-02-21T01:33:44;3.90;;;3.00;;
68910;SDS011;55953;51.650;-0.522;2023-02-21T01:36:31;3.60;;;2.90;;
68910;SDS011;55953;51.650;-0.522;2023-02-21T01:39:17;3.80;;;2.80;;
68910;SDS011;55953;51.650;-0.522;2023-02-21T01:42:04;3.80;;;2.80;;
68910;SDS011;55953;51.650;-0.522;2023-02-21T01:48:07;4.10;;;2.70;;
68910;SDS011;55953;51.650;-0.522;2023-02-21T01:50:58;4.10;;;2.80;;
68910;SDS011;55953;51.650;-0.522;2023-02-21T01:53:46;4.50;;;2.80;;
68910;SDS011;55953;51.650;-0.522;2023-02-21T01:56:33;5.00;;;3.40;;
68910;SDS011;55953;51.650;-0.522;2023-02-21T01:59:21;4.90;;;3.60;;
68910;SDS011;55953;51.650;-0.522;2023-02-21T02:02:25;4.50;;;3.00;;
68910;SDS011;55953;51.650;-0.522;2023-02-21T02:05:14;4.00;;;2.70;;
68910;SDS011;55953;51.650;-0.522;2023-02-21T02:08:02;5.30;;;3.00;;
68910;SDS011;55953;51.650;-0.522;2023-02-21T02:11:00;7.20;;;3.40;;
68910;SDS011;55953;51.650;-0.522;2023-02-21T02:26:31;5.60;;;3.50;;
68910;SDS011;55953;51.650;-0.522;2023-02-21T02:38:32;4.50;;;3.10;;
68910;SDS011;55953;51.650;-0.522;2023-02-21T02:44:17;4.70;;;3.20;;
68910;SDS011;55953;51.650;-0.522;2023-02-21T02:46:48;6.10;;;3.40;;
68910;SDS011;55953;51.650;-0.522;2023-02-21T02:49:24;4.20;;;3.00;;
68910;SDS011;55953;51.650;-0.522;2023-02-21T02:52:02;5.70;;;3.60;;
68910;SDS011;55953;51.650;-0.522;2023-02-21T02:54:35;5.30;;;3.70;;
68910;SDS011;55953;51.650;-0.522;2023-02-21T02:57:06;6.40;;;3.70;;
68910;SDS011;55953;51.650;-0.522;2023-02-21T02:59:43;6.60;;;4.00;;
68910;SDS011;55953;51.650;-0.522;2023-02-21T03:08:57;5.40;;;3.90;;
68910;SDS011;55953;51.650;-0.522;2023-02-21T03:11:41;6.30;;;3.70;;
68910;SDS011;55953;51.650;-0.522;2023-02-21T03:14:21;7.00;;;4.00;;
68910;SDS011;55953;51.650;-0.522;2023-02-21T03:17:00;6.40;;;4.20;;
68910;SDS011;55953;51.650;-0.522;2023-02-21T03:19:34;7.50;;;3.70;;
68910;SDS011;55953;51.650;-0.522;2023-02-21T03:22:11;5.70;;;3.90;;
68910;SDS011;55953;51.650;-0.522;2023-02-21T03:24:44;6.40;;;4.30;;
68910;SDS011;55953;51.650;-0.522;2023-02-21T03:27:16;4.80;;;3.60;;
68910;SDS011;55953;51.650;-0.522;2023-02-21T03:30:05;6.40;;;4.50;;
68910;SDS011;55953;51.650;-0.522;2023-02-21T03:32:42;5.90;;;4.10;;
68910;SDS011;55953;51.650;-0.522;2023-02-21T03:35:14;6.40;;;3.80;;
68910;SDS011;55953;51.650;-0.522;2023-02-21T03:37:45;5.50;;;3.80;;
68910;SDS011;55953;51.650;-0.522;2023-02-21T03:40:20;5.50;;;3.60;;
68910;SDS011;55953;51.650;-0.522;2023-02-21T03:42:52;5.30;;;3.80;;
68910;SDS011;55953;51.650;-0.522;2023-02-21T03:45:21;6.10;;;4.40;;
68910;SDS011;55953;51.650;-0.522;2023-02-21T03:48:02;5.90;;;3.80;;
68910;SDS011;55953;51.650;-0.522;2023-02-21T03:50:32;5.10;;;3.80;;
68910;SDS011;55953;51.650;-0.522;2023-02-21T03:53:00;6.00;;;4.00;;
68910;SDS011;55953;51.650;-0.522;2023-02-21T03:55:28;5.50;;;3.80;;
68910;SDS011;55953;51.650;-0.522;2023-02-21T03:57:56;4.70;;;3.30;;
68910;SDS011;55953;51.650;-0.522;2023-02-21T04:00:24;5.40;;;3.40;;
68910;SDS011;55953;51.650;-0.522;2023-02-21T04:02:53;4.20;;;3.30;;
68910;SDS011;55953;51.650;-0.522;2023-02-21T04:05:43;4.70;;;3.20;;
68910;SDS011;55953;51.650;-0.522;2023-02-21T04:08:11;5.50;;;3.50;;
68910;SDS011;55953;51.650;-0.522;2023-02-21T04:10:39;5.00;;;3.00;;
68910;SDS011;55953;51.650;-0.522;2023-02-21T04:13:19;5.20;;;3.20;;
68910;SDS011;55953;51.650;-0.522;2023-02-21T04:15:47;5.60;;;3.40;;
68910;SDS011;55953;51.650;-0.522;2023-02-21T04:18:16;5.90;;;3.20;;
68910;SDS011;55953;51.650;-0.522;2023-02-21T04:20:46;5.70;;;3.60;;
68910;SDS011;55953;51.650;-0.522;2023-02-21T04:25:47;5.70;;;3.40;;
68910;SDS011;55953;51.650;-0.522;2023-02-21T04:28:21;5.30;;;3.10;;
68910;SDS011;55953;51.650;-0.522;2023-02-21T04:30:49;5.50;;;2.90;;
68910;SDS011;55953;51.650;-0.522;2023-02-21T04:33:18;5.10;;;3.10;;
68910;SDS011;55953;51.650;-0.522;2023-02-21T04:35:46;5.10;;;2.90;;
68910;SDS011;55953;51.650;-0.522;2023-02-21T04:38:23;5.50;;;2.80;;
68910;SDS011;55953;51.650;-0.522;2023-02-21T04:40:51;4.60;;;2.80;;
68910;SDS011;55953;51.650;-0.522;2023-02-21T04:43:19;5.00;;;2.70;;
68910;SDS011;55953;51.650;-0.522;2023-02-21T04:45:48;4.50;;;2.50;;
68910;SDS011;55953;51.650;-0.522;2023-02-21T04:48:16;4.20;;;2.10;;
68910;SDS011;55953;51.650;-0.522;2023-02-21T04:50:44;3.60;;;2.20;;
68910;SDS011;55953;51.650;-0.522;2023-02-21T04:53:12;4.20;;;2.20;;
68910;SDS011;55953;51.650;-0.522;2023-02-21T04:55:40;3.20;;;1.90;;
68910;SDS011;55953;51.650;-0.522;2023-02-21T04:58:08;3.10;;;1.70;;
68910;SDS011;55953;51.650;-0.522;2023-02-21T05:00:35;3.60;;;1.80;;
68910;SDS011;55953;51.650;-0.522;2023-02-21T05:03:03;3.50;;;1.90;;
68910;SDS011;55953;51.650;-0.522;2023-02-21T05:05:31;4.90;;;2.10;;
68910;SDS011;55953;51.650;-0.522;2023-02-21T05:07:59;4.10;;;2.30;;
68910;SDS011;55953;51.650;-0.522;2023-02-21T05:10:27;3.50;;;2.00;;
68910;SDS011;55953;51.650;-0.522;2023-02-21T05:13:13;3.50;;;2.10;;
68910;SDS011;55953;51.650;-0.522;2023-02-21T05:15:41;3.50;;;1.90;;
68910;SDS011;55953;51.650;-0.522;2023-02-21T05:18:09;4.50;;;2.30;;
68910;SDS011;55953;51.650;-0.522;2023-02-21T05:20:37;3.80;;;1.90;;
68910;SDS011;55953;51.650;-0.522;2023-02-21T05:23:05;3.90;;;2.10;;
68910;SDS011;55953;51.650;-0.522;2023-02-21T05:25:40;4.40;;;2.20;;
68910;SDS011;55953;51.650;-0.522;2023-02-21T05:28:08;5.60;;;2.30;;
68910;SDS011;55953;51.650;-0.522;2023-02-21T05:30:36;4.90;;;2.20;;
68910;SDS011;55953;51.650;-0.522;2023-02-21T05:33:04;5.00;;;2.30;;
68910;SDS011;55953;51.650;-0.522;2023-02-21T05:35:32;4.90;;;2.10;;
68910;SDS011;55953;51.650;-0.522;2023-02-21T05:38:00;6.00;;;2.60;;
68910;SDS011;55953;51.650;-0.522;2023-02-21T05:40:28;4.60;;;2.50;;
68910;SDS011;55953;51.650;-0.522;2023-02-21T05:42:56;5.20;;;2.00;;
68910;SDS011;55953;51.650;-0.522;2023-02-21T05:45:23;5.30;;;2.40;;
68910;SDS011;55953;51.650;-0.522;2023-02-21T05:47:51;5.10;;;2.50;;
68910;SDS011;55953;51.650;-0.522;2023-02-21T05:50:22;5.50;;;2.70;;
68910;SDS011;55953;51.650;-0.522;2023-02-21T05:52:50;8.00;;;3.10;;
68910;SDS011;55953;51.650;-0.522;2023-02-21T05:55:18;5.20;;;2.40;;
68910;SDS011;55953;51.650;-0.522;2023-02-21T05:57:46;5.60;;;2.80;;
68910;SDS011;55953;51.650;-0.522;2023-02-21T06:00:19;5.60;;;2.80;;
68910;SDS011;55953;51.650;-0.522;2023-02-21T06:02:51;5.90;;;2.60;;
68910;SDS011;55953;51.650;-0.522;2023-02-21T06:05:20;6.90;;;2.60;;
68910;SDS011;55953;51.650;-0.522;2023-02-21T06:07:49;5.50;;;2.60;;
68910;SDS011;55953;51.650;-0.522;2023-02-21T06:10:18;5.20;;;2.50;;
68910;SDS011;55953;51.650;-0.522;2023-02-21T06:12:46;5.30;;;2.30;;
68910;SDS011;55953;51.650;-0.522;2023-02-21T06:15:14;5.90;;;2.60;;
68910;SDS011;55953;51.650;-0.522;2023-02-21T06:17:43;6.50;;;2.90;;
68910;SDS011;55953;51.650;-0.522;2023-02-21T06:20:12;5.10;;;2.20;;
68910;SDS011;55953;51.650;-0.522;2023-02-21T06:22:43;5.60;;;2.30;;
68910;SDS011;55953;51.650;-0.522;2023-02-21T06:25:11;5.10;;;2.50;;
68910;SDS011;55953;51.650;-0.522;2023-02-21T06:27:39;5.70;;;2.60;;
68910;SDS011;55953;51.650;-0.522;2023-02-21T06:30:07;5.60;;;2.30;;
68910;SDS011;55953;51.650;-0.522;2023-02-21T06:32:35;5.20;;;2.00;;
68910;SDS011;55953;51.650;-0.522;2023-02-21T06:35:03;5.20;;;2.20;;
68910;SDS011;55953;51.650;-0.522;2023-02-21T06:37:31;5.10;;;2.10;;
68910;SDS011;55953;51.650;-0.522;2023-02-21T06:39:59;5.10;;;2.20;;
68910;SDS011;55953;51.650;-0.522;2023-02-21T06:42:27;5.60;;;2.10;;
68910;SDS011;55953;51.650;-0.522;2023-02-21T06:44:56;6.20;;;2.00;;
68910;SDS011;55953;51.650;-0.522;2023-02-21T06:47:24;5.60;;;2.10;;
68910;SDS011;55953;51.650;-0.522;2023-02-21T06:49:52;4.80;;;2.10;;
68910;SDS011;55953;51.650;-0.522;2023-02-21T06:52:20;6.30;;;2.40;;
68910;SDS011;55953;51.650;-0.522;2023-02-21T06:54:50;5.10;;;2.30;;
68910;SDS011;55953;51.650;-0.522;2023-02-21T06:57:18;5.90;;;2.40;;
68910;SDS011;55953;51.650;-0.522;2023-02-21T06:59:46;6.30;;;2.40;;
68910;SDS011;55953;51.650;-0.522;2023-02-21T07:02:16;4.80;;;2.00;;
68910;SDS011;55953;51.650;-0.522;2023-02-21T07:04:46;4.00;;;1.80;;
68910;SDS011;55953;51.650;-0.522;2023-02-21T07:07:15;5.20;;;2.00;;
68910;SDS011;55953;51.650;-0.522;2023-02-21T07:09:43;3.90;;;1.90;;
68910;SDS011;55953;51.650;-0.522;2023-02-21T07:12:11;5.20;;;2.40;;
68910;SDS011;55953;51.650;-0.522;2023-02-21T07:14:39;5.30;;;2.00;;
68910;SDS011;55953;51.650;-0.522;2023-02-21T07:17:06;5.40;;;2.10;;
68910;SDS011;55953;51.650;-0.522;2023-02-21T07:19:34;5.50;;;2.00;;
68910;SDS011;55953;51.650;-0.522;2023-02-21T07:22:02;3.70;;;1.70;;
68910;SDS011;55953;51.650;-0.522;2023-02-21T07:24:30;5.20;;;2.10;;
68910;SDS011;55953;51.650;-0.522;2023-02-21T07:26:58;4.50;;;2.00;;
68910;SDS011;55953;51.650;-0.522;2023-02-21T07:29:26;4.40;;;2.00;;
68910;SDS011;55953;51.650;-0.522;2023-02-21T07:31:55;4.20;;;1.70;;
68910;SDS011;55953;51.650;-0.522;2023-02-21T07:34:23;4.10;;;1.70;;
68910;SDS011;55953;51.650;-0.522;2023-02-21T07:36:51;4.20;;;2.00;;
68910;SDS011;55953;51.650;-0.522;2023-02-21T07:39:18;5.50;;;1.90;;
68910;SDS011;55953;51.650;-0.522;2023-02-21T07:41:46;4.10;;;1.80;;
68910;SDS011;55953;51.650;-0.522;2023-02-21T07:44:21;4.50;;;2.10;;
68910;SDS011;55953;51.650;-0.522;2023-02-21T07:46:49;3.50;;;1.60;;
68910;SDS011;55953;51.650;-0.522;2023-02-21T07:49:17;3.70;;;1.80;;
68910;SDS011;55953;51.650;-0.522;2023-02-21T07:51:45;5.40;;;2.20;;
68910;SDS011;55953;51.650;-0.522;2023-02-21T07:54:13;3.50;;;1.70;;
68910;SDS011;55953;51.650;-0.522;2023-02-21T07:56:44;3.90;;;1.80;;
68910;SDS011;55953;51.650;-0.522;2023-02-21T07:59:13;3.80;;;1.70;;
68910;SDS011;55953;51.650;-0.522;2023-02-21T08:01:42;3.50;;;1.60;;
68910;SDS011;55953;51.650;-0.522;2023-02-21T08:04:10;3.70;;;1.70;;
68910;SDS011;55953;51.650;-0.522;2023-02-21T08:06:38;4.40;;;2.20;;
68910;SDS011;55953;51.650;-0.522;2023-02-21T08:09:06;5.60;;;2.30;;
68910;SDS011;55953;51.650;-0.522;2023-02-21T08:11:34;4.50;;;1.90;;
68910;SDS011;55953;51.650;-0.522;2023-02-21T08:14:03;5.10;;;2.30;;
68910;SDS011;55953;51.650;-0.522;2023-02-21T08:16:31;3.60;;;1.70;;
68910;SDS011;55953;51.650;-0.522;2023-02-21T08:19:01;4.00;;;1.90;;
68910;SDS011;55953;51.650;-0.522;2023-02-21T08:21:32;4.80;;;2.00;;
68910;SDS011;55953;51.650;-0.522;2023-02-21T08:23:59;4.20;;;2.00;;
68910;SDS011;55953;51.650;-0.522;2023-02-21T08:26:28;4.60;;;1.80;;
68910;SDS011;55953;51.650;-0.522;2023-02-21T08:28:55;5.70;;;2.40;;
68910;SDS011;55953;51.650;-0.522;2023-02-21T08:31:23;5.40;;;2.40;;
68910;SDS011;55953;51.650;-0.522;2023-02-21T08:33:53;6.00;;;2.30;;
68910;SDS011;55953;51.650;-0.522;2023-02-21T08:36:21;5.60;;;2.20;;
68910;SDS011;55953;51.650;-0.522;2023-02-21T08:38:51;5.20;;;2.40;;
68910;SDS011;55953;51.650;-0.522;2023-02-21T08:41:19;6.70;;;2.60;;
68910;SDS011;55953;51.650;-0.522;2023-02-21T08:43:47;5.30;;;2.20;;
68910;SDS011;55953;51.650;-0.522;2023-02-21T08:46:15;5.60;;;2.00;;
68910;SDS011;55953;51.650;-0.522;2023-02-21T08:48:43;5.80;;;2.30;;
68910;SDS011;55953;51.650;-0.522;2023-02-21T08:51:11;5.10;;;2.10;;
68910;SDS011;55953;51.650;-0.522;2023-02-21T08:53:40;6.20;;;2.10;;
68910;SDS011;55953;51.650;-0.522;2023-02-21T08:56:08;6.30;;;2.80;;
68910;SDS011;55953;51.650;-0.522;2023-02-21T08:58:35;6.30;;;2.50;;
68910;SDS011;55953;51.650;-0.522;2023-02-21T09:01:04;7.20;;;2.80;;
68910;SDS011;55953;51.650;-0.522;2023-02-21T09:03:33;6.10;;;2.10;;
68910;SDS011;55953;51.650;-0.522;2023-02-21T09:06:01;4.90;;;2.10;;
68910;SDS011;55953;51.650;-0.522;2023-02-21T09:08:30;7.30;;;3.50;;
68910;SDS011;55953;51.650;-0.522;2023-02-21T09:10:58;7.10;;;2.40;;
68910;SDS011;55953;51.650;-0.522;2023-02-21T09:13:29;7.30;;;3.00;;
68910;SDS011;55953;51.650;-0.522;2023-02-21T09:16:00;8.00;;;3.00;;
68910;SDS011;55953;51.650;-0.522;2023-02-21T09:18:31;7.30;;;2.90;;
68910;SDS011;55953;51.650;-0.522;2023-02-21T09:20:59;8.20;;;3.20;;
68910;SDS011;55953;51.650;-0.522;2023-02-21T09:23:29;9.00;;;3.00;;
68910;SDS011;55953;51.650;-0.522;2023-02-21T09:25:58;8.20;;;3.00;;
68910;SDS011;55953;51.650;-0.522;2023-02-21T09:28:26;5.20;;;2.10;;
68910;SDS011;55953;51.650;-0.522;2023-02-21T09:30:55;6.20;;;2.80;;
68910;SDS011;55953;51.650;-0.522;2023-02-21T09:33:23;5.30;;;2.40;;
68910;SDS011;55953;51.650;-0.522;2023-02-21T09:35:51;5.70;;;2.40;;
68910;SDS011;55953;51.650;-0.522;2023-02-21T09:38:20;7.00;;;2.50;;
68910;SDS011;55953;51.650;-0.522;2023-02-21T09:40:54;6.40;;;2.90;;
68910;SDS011;55953;51.650;-0.522;2023-02-21T09:43:35;6.90;;;3.00;;
68910;SDS011;55953;51.650;-0.522;2023-02-21T09:46:19;6.80;;;2.60;;
68910;SDS011;55953;51.650;-0.522;2023-02-21T09:48:55;6.40;;;2.60;;
68910;SDS011;55953;51.650;-0.522;2023-02-21T09:51:23;7.40;;;3.40;;
68910;SDS011;55953;51.650;-0.522;2023-02-21T09:53:54;5.70;;;2.60;;
68910;SDS011;55953;51.650;-0.522;2023-02-21T09:56:25;7.90;;;3.10;;
68910;SDS011;55953;51.650;-0.522;2023-02-21T09:58:56;7.60;;;3.30;;
68910;SDS011;55953;51.650;-0.522;2023-02-21T10:07:21;7.70;;;3.20;;
68910;SDS011;55953;51.650;-0.522;2023-02-21T10:10:47;9.80;;;4.10;;
68910;SDS011;55953;51.650;-0.522;2023-02-21T10:13:40;8.10;;;3.70;;
68910;SDS011;55953;51.650;-0.522;2023-02-21T10:16:36;10.30;;;4.20;;
68910;SDS011;55953;51.650;-0.522;2023-02-21T10:22:12;9.80;;;4.70;;
68910;SDS011;55953;51.650;-0.522;2023-02-21T10:24:47;9.50;;;4.40;;
68910;SDS011;55953;51.650;-0.522;2023-02-21T10:27:25;9.50;;;4.40;;
68910;SDS011;55953;51.650;-0.522;2023-02-21T10:30:03;9.10;;;4.20;;
68910;SDS011;55953;51.650;-0.522;2023-02-21T10:32:36;9.70;;;4.40;;
68910;SDS011;55953;51.650;-0.522;2023-02-21T10:35:05;11.30;;;4.90;;
68910;SDS011;55953;51.650;-0.522;2023-02-21T10:37:41;9.80;;;4.40;;
68910;SDS011;55953;51.650;-0.522;2023-02-21T10:43:05;11.40;;;4.50;;
68910;SDS011;55953;51.650;-0.522;2023-02-21T10:48:24;11.50;;;4.80;;
68910;SDS011;55953;51.650;-0.522;2023-02-21T10:53:40;12.20;;;5.40;;
68910;SDS011;55953;51.650;-0.522;2023-02-21T11:01:41;10.30;;;4.90;;
68910;SDS011;55953;51.650;-0.522;2023-02-21T11:07:07;9.60;;;4.60;;
68910;SDS011;55953;51.650;-0.522;2023-02-21T11:09:42;10.60;;;4.60;;
68910;SDS011;55953;51.650;-0.522;2023-02-21T11:17:20;10.10;;;4.90;;
68910;SDS011;55953;51.650;-0.522;2023-02-21T11:20:37;8.40;;;4.30;;
68910;SDS011;55953;51.650;-0.522;2023-02-21T11:22:46;9.10;;;4.90;;
68910;SDS011;55953;51.650;-0.522;2023-02-21T11:25:26;10.10;;;4.70;;
68910;SDS011;55953;51.650;-0.522;2023-02-21T11:30:46;8.70;;;4.70;;
68910;SDS011;55953;51.650;-0.522;2023-02-21T11:33:28;10.80;;;6.00;;
68910;SDS011;55953;51.650;-0.522;2023-02-21T11:36:15;12.10;;;5.40;;
68910;SDS011;55953;51.650;-0.522;2023-02-21T11:41:45;11.60;;;5.70;;
68910;SDS011;55953;51.650;-0.522;2023-02-21T11:47:18;9.80;;;5.30;;
68910;SDS011;55953;51.650;-0.522;2023-02-21T11:53:03;9.80;;;4.70;;
68910;SDS011;55953;51.650;-0.522;2023-02-21T11:55:41;9.60;;;4.60;;
68910;SDS011;55953;51.650;-0.522;2023-02-21T12:01:10;9.30;;;4.80;;
68910;SDS011;55953;51.650;-0.522;2023-02-21T12:12:39;9.00;;;4.60;;
68910;SDS011;55953;51.650;-0.522;2023-02-21T12:15:23;11.30;;;5.30;;
68910;SDS011;55953;51.650;-0.522;2023-02-21T12:18:13;8.70;;;4.50;;
68910;SDS011;55953;51.650;-0.522;2023-02-21T12:21:22;10.10;;;4.90;;
68910;SDS011;55953;51.650;-0.522;2023-02-21T12:45:05;11.50;;;6.10;;
68910;SDS011;55953;51.650;-0.522;2023-02-21T12:47:48;12.00;;;5.50;;
68910;SDS011;55953;51.650;-0.522;2023-02-21T12:50:21;12.30;;;6.00;;
68910;SDS011;55953;51.650;-0.522;2023-02-21T12:53:05;11.90;;;5.80;;
68910;SDS011;55953;51.650;-0.522;2023-02-21T12:55:43;10.60;;;5.30;;
68910;SDS011;55953;51.650;-0.522;2023-02-21T12:58:22;12.40;;;6.40;;
68910;SDS011;55953;51.650;-0.522;2023-02-21T13:01:01;13.00;;;6.30;;
68910;SDS011;55953;51.650;-0.522;2023-02-21T13:06:35;10.70;;;5.50;;
68910;SDS011;55953;51.650;-0.522;2023-02-21T13:09:16;15.10;;;7.00;;
68910;SDS011;55953;51.650;-0.522;2023-02-21T13:12:03;12.40;;;6.50;;
68910;SDS011;55953;51.650;-0.522;2023-02-21T13:14:41;14.80;;;7.20;;
68910;SDS011;55953;51.650;-0.522;2023-02-21T13:17:15;12.60;;;6.50;;
68910;SDS011;55953;51.650;-0.522;2023-02-21T13:19:48;13.20;;;6.70;;
68910;SDS011;55953;51.650;-0.522;2023-02-21T13:28:57;11.20;;;5.60;;
68910;SDS011;55953;51.650;-0.522;2023-02-21T13:31:31;12.20;;;5.90;;
68910;SDS011;55953;51.650;-0.522;2023-02-21T13:34:07;10.70;;;5.80;;
68910;SDS011;55953;51.650;-0.522;2023-02-21T13:39:19;13.30;;;6.50;;
68910;SDS011;55953;51.650;-0.522;2023-02-21T13:41:51;10.80;;;5.60;;
68910;SDS011;55953;51.650;-0.522;2023-02-21T13:44:30;11.80;;;6.10;;
68910;SDS011;55953;51.650;-0.522;2023-02-21T13:47:08;12.30;;;6.10;;
68910;SDS011;55953;51.650;-0.522;2023-02-21T14:08:23;11.20;;;6.00;;
68910;SDS011;55953;51.650;-0.522;2023-02-21T14:16:36;10.20;;;6.10;;
68910;SDS011;55953;51.650;-0.522;2023-02-21T14:19:21;10.40;;;5.70;;
68910;SDS011;55953;51.650;-0.522;2023-02-21T14:24:34;10.70;;;6.20;;
68910;SDS011;55953;51.650;-0.522;2023-02-21T14:29:44;12.80;;;9.60;;
68910;SDS011;55953;51.650;-0.522;2023-02-21T14:32:35;10.10;;;6.00;;
68910;SDS011;55953;51.650;-0.522;2023-02-21T14:43:21;9.20;;;6.00;;
68910;SDS011;55953;51.650;-0.522;2023-02-21T14:52:30;7.90;;;5.20;;
68910;SDS011;55953;51.650;-0.522;2023-02-21T15:01:13;11.70;;;6.00;;
68910;SDS011;55953;51.650;-0.522;2023-02-21T15:04:11;11.90;;;6.50;;
68910;SDS011;55953;51.650;-0.522;2023-02-21T15:06:58;9.20;;;5.80;;
68910;SDS011;55953;51.650;-0.522;2023-02-21T15:09:34;11.00;;;6.10;;
68910;SDS011;55953;51.650;-0.522;2023-02-21T15:12:13;13.00;;;6.90;;
68910;SDS011;55953;51.650;-0.522;2023-02-21T15:14:48;14.10;;;7.20;;
68910;SDS011;55953;51.650;-0.522;2023-02-21T15:17:20;10.80;;;7.60;;
68910;SDS011;55953;51.650;-0.522;2023-02-21T15:20:04;10.20;;;5.70;;
68910;SDS011;55953;51.650;-0.522;2023-02-21T15:22:40;10.60;;;5.70;;
68910;SDS011;55953;51.650;-0.522;2023-02-21T15:27:50;9.60;;;6.10;;
68910;SDS011;55953;51.650;-0.522;2023-02-21T15:30:26;11.60;;;6.30;;
68910;SDS011;55953;51.650;-0.522;2023-02-21T15:33:13;10.80;;;6.50;;
68910;SDS011;55953;51.650;-0.522;2023-02-21T15:35:52;10.20;;;6.50;;
68910;SDS011;55953;51.650;-0.522;2023-02-21T15:38:42;11.10;;;6.30;;
68910;SDS011;55953;51.650;-0.522;2023-02-21T15:41:35;10.70;;;6.10;;
68910;SDS011;55953;51.650;-0.522;2023-02-21T15:44:23;11.20;;;7.00;;
68910;SDS011;55953;51.650;-0.522;2023-02-21T15:47:07;11.50;;;7.00;;
68910;SDS011;55953;51.650;-0.522;2023-02-21T15:49:44;10.60;;;6.80;;
68910;SDS011;55953;51.650;-0.522;2023-02-21T15:52:42;10.80;;;7.30;;
68910;SDS011;55953;51.650;-0.522;2023-02-21T16:00:41;13.90;;;8.80;;
68910;SDS011;55953;51.650;-0.522;2023-02-21T16:03:29;13.40;;;8.10;;
68910;SDS011;55953;51.650;-0.522;2023-02-21T16:06:21;13.10;;;7.70;;
68910;SDS011;55953;51.650;-0.522;2023-02-21T16:09:06;14.50;;;8.10;;
68910;SDS011;55953;51.650;-0.522;2023-02-21T16:12:01;15.90;;;8.60;;
68910;SDS011;55953;51.650;-0.522;2023-02-21T16:14:54;14.70;;;8.40;;
68910;SDS011;55953;51.650;-0.522;2023-02-21T16:17:35;12.70;;;7.60;;
68910;SDS011;55953;51.650;-0.522;2023-02-21T16:20:19;13.90;;;7.80;;
68910;SDS011;55953;51.650;-0.522;2023-02-21T16:23:29;13.30;;;6.80;;
68910;SDS011;55953;51.650;-0.522;2023-02-21T16:28:39;15.70;;;7.90;;
68910;SDS011;55953;51.650;-0.522;2023-02-21T16:31:13;13.50;;;7.70;;
68910;SDS011;55953;51.650;-0.522;2023-02-21T16:33:52;13.70;;;7.80;;
68910;SDS011;55953;51.650;-0.522;2023-02-21T16:36:28;14.30;;;8.00;;
68910;SDS011;55953;51.650;-0.522;2023-02-21T16:39:01;14.50;;;8.50;;
68910;SDS011;55953;51.650;-0.522;2023-02-21T16:41:29;16.60;;;8.00;;
68910;SDS011;55953;51.650;-0.522;2023-02-21T16:43:56;12.50;;;7.70;;
68910;SDS011;55953;51.650;-0.522;2023-02-21T16:46:26;14.10;;;8.10;;
68910;SDS011;55953;51.650;-0.522;2023-02-21T16:48:57;11.80;;;6.80;;
68910;SDS011;55953;51.650;-0.522;2023-02-21T16:51:27;15.00;;;7.60;;
68910;SDS011;55953;51.650;-0.522;2023-02-21T16:54:01;13.00;;;7.60;;
68910;SDS011;55953;51.650;-0.522;2023-02-21T16:56:30;14.50;;;7.90;;
68910;SDS011;55953;51.650;-0.522;2023-02-21T16:58:58;13.00;;;7.70;;
68910;SDS011;55953;51.650;-0.522;2023-02-21T17:01:27;15.70;;;8.00;;
68910;SDS011;55953;51.650;-0.522;2023-02-21T17:03:57;15.40;;;8.10;;
68910;SDS011;55953;51.650;-0.522;2023-02-21T17:06:25;12.90;;;7.90;;
68910;SDS011;55953;51.650;-0.522;2023-02-21T17:08:55;15.90;;;8.50;;
68910;SDS011;55953;51.650;-0.522;2023-02-21T17:11:25;15.50;;;8.40;;
68910;SDS011;55953;51.650;-0.522;2023-02-21T17:13:53;14.40;;;8.10;;
68910;SDS011;55953;51.650;-0.522;2023-02-21T17:16:21;14.80;;;8.00;;
68910;SDS011;55953;51.650;-0.522;2023-02-21T17:18:49;18.20;;;9.20;;
68910;SDS011;55953;51.650;-0.522;2023-02-21T17:21:17;18.00;;;9.70;;
68910;SDS011;55953;51.650;-0.522;2023-02-21T17:23:45;16.50;;;8.40;;
68910;SDS011;55953;51.650;-0.522;2023-02-21T17:26:15;17.60;;;9.30;;
68910;SDS011;55953;51.650;-0.522;2023-02-21T17:28:43;16.90;;;8.70;;
68910;SDS011;55953;51.650;-0.522;2023-02-21T17:31:16;15.50;;;9.00;;
68910;SDS011;55953;51.650;-0.522;2023-02-21T17:33:46;17.00;;;9.00;;
68910;SDS011;55953;51.650;-0.522;2023-02-21T17:36:18;15.90;;;8.70;;
68910;SDS011;55953;51.650;-0.522;2023-02-21T17:38:52;16.40;;;9.00;;
68910;SDS011;55953;51.650;-0.522;2023-02-21T17:41:20;15.40;;;8.90;;
68910;SDS011;55953;51.650;-0.522;2023-02-21T17:43:49;16.70;;;9.00;;
68910;SDS011;55953;51.650;-0.522;2023-02-21T17:46:18;19.00;;;10.30;;
68910;SDS011;55953;51.650;-0.522;2023-02-21T17:48:47;24.30;;;11.30;;
68910;SDS011;55953;51.650;-0.522;2023-02-21T17:51:23;20.60;;;11.30;;
68910;SDS011;55953;51.650;-0.522;2023-02-21T17:53:53;19.90;;;11.20;;
68910;SDS011;55953;51.650;-0.522;2023-02-21T17:56:22;23.70;;;12.00;;
68910;SDS011;55953;51.650;-0.522;2023-02-21T17:58:51;17.80;;;9.90;;
68910;SDS011;55953;51.650;-0.522;2023-02-21T18:01:19;20.70;;;10.20;;
68910;SDS011;55953;51.650;-0.522;2023-02-21T18:03:47;21.30;;;10.40;;
68910;SDS011;55953;51.650;-0.522;2023-02-21T18:06:16;22.40;;;10.60;;
68910;SDS011;55953;51.650;-0.522;2023-02-21T18:08:44;21.40;;;11.10;;
68910;SDS011;55953;51.650;-0.522;2023-02-21T18:11:16;22.00;;;11.80;;
68910;SDS011;55953;51.650;-0.522;2023-02-21T18:13:44;21.70;;;12.00;;
68910;SDS011;55953;51.650;-0.522;2023-02-21T18:16:12;21.10;;;10.30;;
68910;SDS011;55953;51.650;-0.522;2023-02-21T18:18:40;25.00;;;12.20;;
68910;SDS011;55953;51.650;-0.522;2023-02-21T18:21:08;27.00;;;13.70;;
68910;SDS011;55953;51.650;-0.522;2023-02-21T18:23:36;29.30;;;13.70;;